sensor_id;sensor_type;location;lat;lon;timestamp;P1;durP1;ratioP1;P2;durP2;ratioP2
15425;SDS011;7812;50.072;7.036;2023-03-14T00:00:32;5.37;;;1.83;;
15425;SDS011;7812;50.072;7.036;2023-03-14T00:02:58;4.87;;;2.00;;
15425;SDS011;7812;50.072;7.036;2023-03-14T00:05:24;6.17;;;2.40;;
15425;SDS011;7812;50.072;7.036;2023-03-14T00:07:49;3.67;;;1.83;;
15425;SDS011;7812;50.072;7.036;2023-03-14T00:10:15;6.23;;;2.20;;
15425;SDS011;7812;50.072;7.036;2023-03-14T00:12:41;4.67;;;2.47;;
15425;SDS011;7812;50.072;7.036;2023-03-14T00:15:07;5.73;;;2.10;;
15425;SDS011;7812;50.072;7.036;2023-03-14T00:17:34;5.27;;;2.33;;
15425;SDS011;7812;50.072;7.036;2023-03-14T00:20:00;4.33;;;2.27;;
15425;SDS011;7812;50.072;7.036;2023-03-14T00:22:33;4.67;;;2.17;;
15425;SDS011;7812;50.072;7.036;2023-03-14T00:25:03;4.07;;;2.20;;
15425;SDS011;7812;50.072;7.036;2023-03-14T00:27:30;6.60;;;2.60;;
15425;SDS011;7812;50.072;7.036;2023-03-14T00:29:56;6.27;;;2.47;;
15425;SDS011;7812;50.072;7.036;2023-03-14T00:32:21;4.73;;;2.27;;
15425;SDS011;7812;50.072;7.036;2023-03-14T00:34:47;6.03;;;2.63;;
15425;SDS011;7812;50.072;7.036;2023-03-14T00:37:13;6.30;;;2.57;;
15425;SDS011;7812;50.072;7.036;2023-03-14T00:39:39;6.97;;;2.37;;
15425;SDS011;7812;50.072;7.036;2023-03-14T00:42:05;12.30;;;6.27;;
15425;SDS011;7812;50.072;7.036;2023-03-14T00:44:30;7.70;;;2.57;;
15425;SDS011;7812;50.072;7.036;2023-03-14T00:46:57;8.67;;;2.60;;
15425;SDS011;7812;50.072;7.036;2023-03-14T00:49:22;5.67;;;2.20;;
15425;SDS011;7812;50.072;7.036;2023-03-14T00:51:48;7.50;;;2.10;;
15425;SDS011;7812;50.072;7.036;2023-03-14T00:54:14;7.33;;;2.50;;
15425;SDS011;7812;50.072;7.036;2023-03-14T00:56:40;8.33;;;2.37;;
15425;SDS011;7812;50.072;7.036;2023-03-14T00:59:05;6.43;;;2.70;;
15425;SDS011;7812;50.072;7.036;2023-03-14T01:01:31;7.80;;;2.27;;
15425;SDS011;7812;50.072;7.036;2023-03-14T01:03:57;9.67;;;3.03;;
15425;SDS011;7812;50.072;7.036;2023-03-14T01:06:23;8.90;;;2.90;;
15425;SDS011;7812;50.072;7.036;2023-03-14T01:08:51;7.37;;;2.20;;
15425;SDS011;7812;50.072;7.036;2023-03-14T01:11:18;7.37;;;2.30;;
15425;SDS011;7812;50.072;7.036;2023-03-14T01:13:49;3.80;;;2.33;;
15425;SDS011;7812;50.072;7.036;2023-03-14T01:16:15;4.67;;;2.63;;
15425;SDS011;7812;50.072;7.036;2023-03-14T01:18:43;7.67;;;2.30;;
15425;SDS011;7812;50.072;7.036;2023-03-14T01:21:13;8.33;;;2.53;;
15425;SDS011;7812;50.072;7.036;2023-03-14T01:23:50;5.43;;;1.87;;
15425;SDS011;7812;50.072;7.036;2023-03-14T01:26:18;4.50;;;1.70;;
15425;SDS011;7812;50.072;7.036;2023-03-14T01:28:45;8.67;;;2.33;;
15425;SDS011;7812;50.072;7.036;2023-03-14T01:31:12;7.97;;;2.77;;
15425;SDS011;7812;50.072;7.036;2023-03-14T01:33:39;5.20;;;2.20;;
15425;SDS011;7812;50.072;7.036;2023-03-14T01:36:07;5.93;;;2.10;;
15425;SDS011;7812;50.072;7.036;2023-03-14T01:38:34;9.80;;;2.70;;
15425;SDS011;7812;50.072;7.036;2023-03-14T01:41:01;6.73;;;2.10;;
15425;SDS011;7812;50.072;7.036;2023-03-14T01:43:27;6.00;;;2.40;;
15425;SDS011;7812;50.072;7.036;2023-03-14T01:48:42;7.07;;;2.40;;
15425;SDS011;7812;50.072;7.036;2023-03-14T01:51:23;4.93;;;2.37;;
15425;SDS011;7812;50.072;7.036;2023-03-14T01:54:21;4.67;;;2.03;;
15425;SDS011;7812;50.072;7.036;2023-03-14T01:57:41;6.83;;;2.43;;
15425;SDS011;7812;50.072;7.036;2023-03-14T01:59:48;5.83;;;2.00;;
15425;SDS011;7812;50.072;7.036;2023-03-14T02:02:28;7.97;;;2.20;;
15425;SDS011;7812;50.072;7.036;2023-03-14T02:04:56;7.80;;;2.23;;
15425;SDS011;7812;50.072;7.036;2023-03-14T02:07:29;5.17;;;2.27;;
15425;SDS011;7812;50.072;7.036;2023-03-14T02:10:08;7.03;;;2.63;;
15425;SDS011;7812;50.072;7.036;2023-03-14T02:12:35;6.07;;;2.80;;
15425;SDS011;7812;50.072;7.036;2023-03-14T02:15:01;8.07;;;2.43;;
15425;SDS011;7812;50.072;7.036;2023-03-14T02:17:27;5.53;;;2.00;;
15425;SDS011;7812;50.072;7.036;2023-03-14T02:22:59;7.20;;;2.07;;
15425;SDS011;7812;50.072;7.036;2023-03-14T02:27:53;6.43;;;2.40;;
15425;SDS011;7812;50.072;7.036;2023-03-14T02:30:21;6.20;;;2.30;;
15425;SDS011;7812;50.072;7.036;2023-03-14T02:32:52;5.23;;;2.37;;
15425;SDS011;7812;50.072;7.036;2023-03-14T02:35:26;6.97;;;1.90;;
15425;SDS011;7812;50.072;7.036;2023-03-14T02:38:04;6.30;;;2.03;;
15425;SDS011;7812;50.072;7.036;2023-03-14T02:40:36;8.50;;;2.37;;
15425;SDS011;7812;50.072;7.036;2023-03-14T02:43:02;5.73;;;2.10;;
15425;SDS011;7812;50.072;7.036;2023-03-14T02:45:36;4.43;;;1.80;;
15425;SDS011;7812;50.072;7.036;2023-03-14T02:48:07;5.53;;;1.67;;
15425;SDS011;7812;50.072;7.036;2023-03-14T02:50:38;5.23;;;1.70;;
15425;SDS011;7812;50.072;7.036;2023-03-14T02:53:04;7.43;;;2.33;;
15425;SDS011;7812;50.072;7.036;2023-03-14T02:55:30;6.57;;;2.30;;
15425;SDS011;7812;50.072;7.036;2023-03-14T02:57:56;3.80;;;1.90;;
15425;SDS011;7812;50.072;7.036;2023-03-14T03:00:21;5.90;;;1.80;;
15425;SDS011;7812;50.072;7.036;2023-03-14T03:02:47;6.03;;;2.10;;
15425;SDS011;7812;50.072;7.036;2023-03-14T03:05:13;4.07;;;1.87;;
15425;SDS011;7812;50.072;7.036;2023-03-14T03:07:38;4.40;;;1.53;;
15425;SDS011;7812;50.072;7.036;2023-03-14T03:10:04;4.77;;;2.07;;
15425;SDS011;7812;50.072;7.036;2023-03-14T03:12:30;4.23;;;2.00;;
15425;SDS011;7812;50.072;7.036;2023-03-14T03:14:56;4.33;;;1.67;;
15425;SDS011;7812;50.072;7.036;2023-03-14T03:17:21;5.90;;;1.80;;
15425;SDS011;7812;50.072;7.036;2023-03-14T03:19:47;3.83;;;1.60;;
15425;SDS011;7812;50.072;7.036;2023-03-14T03:22:13;4.17;;;1.87;;
15425;SDS011;7812;50.072;7.036;2023-03-14T03:24:38;5.80;;;1.90;;
15425;SDS011;7812;50.072;7.036;2023-03-14T03:27:04;6.27;;;1.90;;
15425;SDS011;7812;50.072;7.036;2023-03-14T03:29:29;3.93;;;1.63;;
15425;SDS011;7812;50.072;7.036;2023-03-14T03:31:55;5.47;;;2.30;;
15425;SDS011;7812;50.072;7.036;2023-03-14T03:34:21;6.00;;;2.20;;
15425;SDS011;7812;50.072;7.036;2023-03-14T03:36:46;3.53;;;1.93;;
15425;SDS011;7812;50.072;7.036;2023-03-14T03:39:12;5.77;;;1.83;;
15425;SDS011;7812;50.072;7.036;2023-03-14T03:41:38;7.60;;;2.30;;
15425;SDS011;7812;50.072;7.036;2023-03-14T03:44:03;5.80;;;1.83;;
15425;SDS011;7812;50.072;7.036;2023-03-14T03:46:30;5.80;;;1.90;;
15425;SDS011;7812;50.072;7.036;2023-03-14T03:48:57;3.43;;;1.50;;
15425;SDS011;7812;50.072;7.036;2023-03-14T03:51:24;3.67;;;1.70;;
15425;SDS011;7812;50.072;7.036;2023-03-14T03:53:50;5.80;;;2.00;;
15425;SDS011;7812;50.072;7.036;2023-03-14T03:56:15;4.93;;;1.90;;
15425;SDS011;7812;50.072;7.036;2023-03-14T03:58:41;4.17;;;1.80;;
15425;SDS011;7812;50.072;7.036;2023-03-14T04:01:07;3.60;;;1.50;;
15425;SDS011;7812;50.072;7.036;2023-03-14T04:03:34;5.83;;;2.23;;
15425;SDS011;7812;50.072;7.036;2023-03-14T04:06:01;4.50;;;1.40;;
15425;SDS011;7812;50.072;7.036;2023-03-14T04:08:29;6.80;;;2.40;;
15425;SDS011;7812;50.072;7.036;2023-03-14T04:10:56;4.70;;;1.40;;
15425;SDS011;7812;50.072;7.036;2023-03-14T04:13:22;3.43;;;1.33;;
15425;SDS011;7812;50.072;7.036;2023-03-14T04:15:48;3.23;;;1.30;;
15425;SDS011;7812;50.072;7.036;2023-03-14T04:18:14;2.10;;;1.10;;
15425;SDS011;7812;50.072;7.036;2023-03-14T04:20:40;2.40;;;1.10;;
15425;SDS011;7812;50.072;7.036;2023-03-14T04:23:06;3.03;;;1.50;;
15425;SDS011;7812;50.072;7.036;2023-03-14T04:25:31;2.60;;;1.37;;
15425;SDS011;7812;50.072;7.036;2023-03-14T04:27:57;2.20;;;1.30;;
15425;SDS011;7812;50.072;7.036;2023-03-14T04:30:23;2.87;;;1.60;;
15425;SDS011;7812;50.072;7.036;2023-03-14T04:32:48;3.13;;;1.07;;
15425;SDS011;7812;50.072;7.036;2023-03-14T04:35:14;3.03;;;1.30;;
15425;SDS011;7812;50.072;7.036;2023-03-14T04:37:40;3.37;;;1.27;;
15425;SDS011;7812;50.072;7.036;2023-03-14T04:40:08;2.33;;;1.30;;
15425;SDS011;7812;50.072;7.036;2023-03-14T04:42:34;2.43;;;1.10;;
15425;SDS011;7812;50.072;7.036;2023-03-14T04:45:00;1.93;;;1.10;;
15425;SDS011;7812;50.072;7.036;2023-03-14T04:47:27;1.60;;;0.93;;
15425;SDS011;7812;50.072;7.036;2023-03-14T04:49:53;2.30;;;1.30;;
15425;SDS011;7812;50.072;7.036;2023-03-14T04:52:18;3.13;;;1.10;;
15425;SDS011;7812;50.072;7.036;2023-03-14T04:54:44;2.83;;;1.13;;
15425;SDS011;7812;50.072;7.036;2023-03-14T04:57:10;3.03;;;1.13;;
15425;SDS011;7812;50.072;7.036;2023-03-14T04:59:35;2.87;;;1.07;;
15425;SDS011;7812;50.072;7.036;2023-03-14T05:02:01;1.40;;;1.13;;
15425;SDS011;7812;50.072;7.036;2023-03-14T05:04:26;3.17;;;1.60;;
15425;SDS011;7812;50.072;7.036;2023-03-14T05:06:52;2.50;;;1.27;;
15425;SDS011;7812;50.072;7.036;2023-03-14T05:09:18;2.50;;;1.20;;
15425;SDS011;7812;50.072;7.036;2023-03-14T05:11:43;4.37;;;1.10;;
15425;SDS011;7812;50.072;7.036;2023-03-14T05:14:09;5.30;;;1.27;;
15425;SDS011;7812;50.072;7.036;2023-03-14T05:16:35;3.80;;;1.73;;
15425;SDS011;7812;50.072;7.036;2023-03-14T05:19:00;1.13;;;0.87;;
15425;SDS011;7812;50.072;7.036;2023-03-14T05:21:26;2.47;;;1.00;;
15425;SDS011;7812;50.072;7.036;2023-03-14T05:23:52;3.53;;;1.53;;
15425;SDS011;7812;50.072;7.036;2023-03-14T05:26:18;2.47;;;1.00;;
15425;SDS011;7812;50.072;7.036;2023-03-14T05:28:44;2.37;;;0.87;;
15425;SDS011;7812;50.072;7.036;2023-03-14T05:31:09;1.70;;;0.93;;
15425;SDS011;7812;50.072;7.036;2023-03-14T05:33:35;2.30;;;0.90;;
15425;SDS011;7812;50.072;7.036;2023-03-14T05:36:01;2.40;;;1.07;;
15425;SDS011;7812;50.072;7.036;2023-03-14T05:38:27;1.57;;;0.93;;
15425;SDS011;7812;50.072;7.036;2023-03-14T05:40:52;3.73;;;1.20;;
15425;SDS011;7812;50.072;7.036;2023-03-14T05:43:18;3.40;;;1.30;;
15425;SDS011;7812;50.072;7.036;2023-03-14T05:45:44;2.87;;;1.50;;
15425;SDS011;7812;50.072;7.036;2023-03-14T05:48:09;3.07;;;1.20;;
15425;SDS011;7812;50.072;7.036;2023-03-14T05:50:36;3.13;;;1.30;;
15425;SDS011;7812;50.072;7.036;2023-03-14T05:53:01;3.20;;;1.40;;
15425;SDS011;7812;50.072;7.036;2023-03-14T05:55:27;4.33;;;1.63;;
15425;SDS011;7812;50.072;7.036;2023-03-14T05:57:53;3.10;;;1.03;;
15425;SDS011;7812;50.072;7.036;2023-03-14T06:00:19;4.00;;;1.47;;
15425;SDS011;7812;50.072;7.036;2023-03-14T06:02:46;2.67;;;1.30;;
15425;SDS011;7812;50.072;7.036;2023-03-14T06:05:12;3.17;;;1.33;;
15425;SDS011;7812;50.072;7.036;2023-03-14T06:07:38;2.10;;;1.20;;
15425;SDS011;7812;50.072;7.036;2023-03-14T06:10:04;4.30;;;1.77;;
15425;SDS011;7812;50.072;7.036;2023-03-14T06:12:30;3.90;;;1.40;;
15425;SDS011;7812;50.072;7.036;2023-03-14T06:14:56;2.40;;;1.37;;
15425;SDS011;7812;50.072;7.036;2023-03-14T06:17:22;2.67;;;1.17;;
15425;SDS011;7812;50.072;7.036;2023-03-14T06:19:47;2.47;;;1.30;;
15425;SDS011;7812;50.072;7.036;2023-03-14T06:22:13;4.13;;;1.30;;
15425;SDS011;7812;50.072;7.036;2023-03-14T06:24:39;3.13;;;1.20;;
15425;SDS011;7812;50.072;7.036;2023-03-14T06:27:04;3.67;;;1.20;;
15425;SDS011;7812;50.072;7.036;2023-03-14T06:29:31;2.43;;;1.37;;
15425;SDS011;7812;50.072;7.036;2023-03-14T06:31:57;1.90;;;1.50;;
15425;SDS011;7812;50.072;7.036;2023-03-14T06:34:23;3.43;;;1.37;;
15425;SDS011;7812;50.072;7.036;2023-03-14T06:36:48;3.63;;;1.23;;
15425;SDS011;7812;50.072;7.036;2023-03-14T06:39:14;3.63;;;1.10;;
15425;SDS011;7812;50.072;7.036;2023-03-14T06:41:40;2.17;;;1.10;;
15425;SDS011;7812;50.072;7.036;2023-03-14T06:44:05;3.57;;;1.13;;
15425;SDS011;7812;50.072;7.036;2023-03-14T06:46:31;1.53;;;0.90;;
15425;SDS011;7812;50.072;7.036;2023-03-14T06:48:56;2.60;;;1.10;;
15425;SDS011;7812;50.072;7.036;2023-03-14T06:51:22;1.57;;;0.93;;
15425;SDS011;7812;50.072;7.036;2023-03-14T06:53:48;4.83;;;1.33;;
15425;SDS011;7812;50.072;7.036;2023-03-14T06:56:14;2.60;;;1.10;;
15425;SDS011;7812;50.072;7.036;2023-03-14T06:58:39;3.57;;;1.00;;
15425;SDS011;7812;50.072;7.036;2023-03-14T07:01:05;1.43;;;1.00;;
15425;SDS011;7812;50.072;7.036;2023-03-14T07:03:40;4.43;;;1.20;;
15425;SDS011;7812;50.072;7.036;2023-03-14T07:06:06;3.70;;;1.10;;
15425;SDS011;7812;50.072;7.036;2023-03-14T07:08:32;3.07;;;1.10;;
15425;SDS011;7812;50.072;7.036;2023-03-14T07:10:57;1.77;;;1.00;;
15425;SDS011;7812;50.072;7.036;2023-03-14T07:13:23;1.37;;;0.93;;
15425;SDS011;7812;50.072;7.036;2023-03-14T07:15:48;2.50;;;1.10;;
15425;SDS011;7812;50.072;7.036;2023-03-14T07:18:14;2.20;;;1.10;;
15425;SDS011;7812;50.072;7.036;2023-03-14T07:20:40;1.07;;;0.80;;
15425;SDS011;7812;50.072;7.036;2023-03-14T07:23:05;2.70;;;0.67;;
15425;SDS011;7812;50.072;7.036;2023-03-14T07:25:31;1.90;;;0.80;;
15425;SDS011;7812;50.072;7.036;2023-03-14T07:27:57;0.70;;;0.63;;
15425;SDS011;7812;50.072;7.036;2023-03-14T07:30:22;1.67;;;0.80;;
15425;SDS011;7812;50.072;7.036;2023-03-14T07:32:48;0.80;;;0.67;;
15425;SDS011;7812;50.072;7.036;2023-03-14T07:35:14;0.87;;;0.60;;
15425;SDS011;7812;50.072;7.036;2023-03-14T07:37:39;0.60;;;0.53;;
15425;SDS011;7812;50.072;7.036;2023-03-14T07:40:05;0.70;;;0.70;;
15425;SDS011;7812;50.072;7.036;2023-03-14T07:42:32;1.30;;;0.80;;
15425;SDS011;7812;50.072;7.036;2023-03-14T07:44:57;0.70;;;0.60;;
15425;SDS011;7812;50.072;7.036;2023-03-14T07:47:23;0.87;;;0.57;;
15425;SDS011;7812;50.072;7.036;2023-03-14T07:49:49;0.60;;;0.60;;
15425;SDS011;7812;50.072;7.036;2023-03-14T07:52:14;1.90;;;0.70;;
15425;SDS011;7812;50.072;7.036;2023-03-14T07:54:40;0.57;;;0.57;;
15425;SDS011;7812;50.072;7.036;2023-03-14T07:57:05;1.63;;;0.77;;
15425;SDS011;7812;50.072;7.036;2023-03-14T07:59:31;1.10;;;0.80;;
15425;SDS011;7812;50.072;7.036;2023-03-14T08:01:57;1.77;;;0.67;;
15425;SDS011;7812;50.072;7.036;2023-03-14T08:07:08;1.37;;;0.70;;
15425;SDS011;7812;50.072;7.036;2023-03-14T08:09:34;2.63;;;0.90;;
15425;SDS011;7812;50.072;7.036;2023-03-14T08:11:59;0.80;;;0.80;;
15425;SDS011;7812;50.072;7.036;2023-03-14T08:14:25;0.50;;;0.50;;
15425;SDS011;7812;50.072;7.036;2023-03-14T08:16:51;2.37;;;0.90;;
15425;SDS011;7812;50.072;7.036;2023-03-14T08:19:17;2.60;;;1.00;;
15425;SDS011;7812;50.072;7.036;2023-03-14T08:21:42;1.00;;;0.90;;
15425;SDS011;7812;50.072;7.036;2023-03-14T08:24:08;0.80;;;0.70;;
15425;SDS011;7812;50.072;7.036;2023-03-14T08:26:34;1.03;;;0.73;;
15425;SDS011;7812;50.072;7.036;2023-03-14T08:29:00;0.73;;;0.70;;
15425;SDS011;7812;50.072;7.036;2023-03-14T08:31:26;1.70;;;0.90;;
15425;SDS011;7812;50.072;7.036;2023-03-14T08:33:52;1.30;;;0.70;;
15425;SDS011;7812;50.072;7.036;2023-03-14T08:36:18;1.00;;;0.60;;
15425;SDS011;7812;50.072;7.036;2023-03-14T08:38:44;0.80;;;0.60;;
15425;SDS011;7812;50.072;7.036;2023-03-14T08:41:10;1.17;;;0.77;;
15425;SDS011;7812;50.072;7.036;2023-03-14T08:43:36;1.13;;;0.63;;
15425;SDS011;7812;50.072;7.036;2023-03-14T08:46:02;0.70;;;0.60;;
15425;SDS011;7812;50.072;7.036;2023-03-14T08:48:28;0.50;;;0.50;;
15425;SDS011;7812;50.072;7.036;2023-03-14T08:50:56;0.97;;;0.70;;
15425;SDS011;7812;50.072;7.036;2023-03-14T08:53:28;0.90;;;0.57;;
15425;SDS011;7812;50.072;7.036;2023-03-14T08:55:54;0.70;;;0.70;;
15425;SDS011;7812;50.072;7.036;2023-03-14T08:58:20;1.53;;;0.60;;
15425;SDS011;7812;50.072;7.036;2023-03-14T09:00:47;0.50;;;0.50;;
15425;SDS011;7812;50.072;7.036;2023-03-14T09:03:13;0.83;;;0.50;;
15425;SDS011;7812;50.072;7.036;2023-03-14T09:05:39;0.77;;;0.70;;
15425;SDS011;7812;50.072;7.036;2023-03-14T09:08:05;0.80;;;0.50;;
15425;SDS011;7812;50.072;7.036;2023-03-14T09:10:31;1.17;;;0.80;;
15425;SDS011;7812;50.072;7.036;2023-03-14T09:12:56;2.30;;;0.70;;
15425;SDS011;7812;50.072;7.036;2023-03-14T09:15:23;1.20;;;0.73;;
15425;SDS011;7812;50.072;7.036;2023-03-14T09:17:49;1.00;;;0.50;;
15425;SDS011;7812;50.072;7.036;2023-03-14T09:20:15;1.17;;;0.50;;
15425;SDS011;7812;50.072;7.036;2023-03-14T09:22:41;0.40;;;0.40;;
15425;SDS011;7812;50.072;7.036;2023-03-14T09:25:06;0.70;;;0.70;;
15425;SDS011;7812;50.072;7.036;2023-03-14T09:27:32;0.53;;;0.53;;
15425;SDS011;7812;50.072;7.036;2023-03-14T09:29:58;0.83;;;0.70;;
15425;SDS011;7812;50.072;7.036;2023-03-14T09:32:24;1.33;;;0.53;;
15425;SDS011;7812;50.072;7.036;2023-03-14T09:34:49;0.60;;;0.47;;
15425;SDS011;7812;50.072;7.036;2023-03-14T09:37:15;0.90;;;0.50;;
15425;SDS011;7812;50.072;7.036;2023-03-14T09:39:41;0.60;;;0.40;;
15425;SDS011;7812;50.072;7.036;2023-03-14T09:42:07;1.57;;;0.93;;
15425;SDS011;7812;50.072;7.036;2023-03-14T09:44:39;2.00;;;0.80;;
15425;SDS011;7812;50.072;7.036;2023-03-14T09:47:19;1.07;;;0.80;;
15425;SDS011;7812;50.072;7.036;2023-03-14T09:49:45;0.57;;;0.57;;
15425;SDS011;7812;50.072;7.036;2023-03-14T09:52:13;1.10;;;0.90;;
15425;SDS011;7812;50.072;7.036;2023-03-14T09:54:43;0.83;;;0.70;;
15425;SDS011;7812;50.072;7.036;2023-03-14T09:57:13;0.50;;;0.50;;
15425;SDS011;7812;50.072;7.036;2023-03-14T09:59:43;0.63;;;0.50;;
15425;SDS011;7812;50.072;7.036;2023-03-14T10:02:15;1.27;;;0.60;;
15425;SDS011;7812;50.072;7.036;2023-03-14T10:04:44;1.00;;;0.70;;
15425;SDS011;7812;50.072;7.036;2023-03-14T10:07:13;2.20;;;1.07;;
15425;SDS011;7812;50.072;7.036;2023-03-14T10:09:43;1.10;;;0.70;;
15425;SDS011;7812;50.072;7.036;2023-03-14T10:12:10;0.40;;;0.40;;
15425;SDS011;7812;50.072;7.036;2023-03-14T10:14:37;0.40;;;0.40;;
15425;SDS011;7812;50.072;7.036;2023-03-14T10:17:13;0.60;;;0.60;;
15425;SDS011;7812;50.072;7.036;2023-03-14T10:19:57;0.40;;;0.40;;
15425;SDS011;7812;50.072;7.036;2023-03-14T10:22:24;0.50;;;0.50;;
15425;SDS011;7812;50.072;7.036;2023-03-14T10:24:55;0.40;;;0.40;;
15425;SDS011;7812;50.072;7.036;2023-03-14T10:27:34;2.30;;;0.50;;
15425;SDS011;7812;50.072;7.036;2023-03-14T10:30:05;0.37;;;0.37;;
15425;SDS011;7812;50.072;7.036;2023-03-14T10:32:39;0.60;;;0.40;;
15425;SDS011;7812;50.072;7.036;2023-03-14T10:37:52;0.40;;;0.40;;
15425;SDS011;7812;50.072;7.036;2023-03-14T10:40:24;0.50;;;0.50;;
15425;SDS011;7812;50.072;7.036;2023-03-14T10:42:57;0.30;;;0.30;;
15425;SDS011;7812;50.072;7.036;2023-03-14T10:53:25;0.60;;;0.30;;
15425;SDS011;7812;50.072;7.036;2023-03-14T10:55:51;0.30;;;0.30;;
15425;SDS011;7812;50.072;7.036;2023-03-14T10:58:25;0.23;;;0.23;;
15425;SDS011;7812;50.072;7.036;2023-03-14T11:03:33;0.30;;;0.30;;
15425;SDS011;7812;50.072;7.036;2023-03-14T11:08:45;0.40;;;0.40;;
15425;SDS011;7812;50.072;7.036;2023-03-14T11:32:23;0.40;;;0.40;;
15425;SDS011;7812;50.072;7.036;2023-03-14T11:34:53;0.50;;;0.50;;
15425;SDS011;7812;50.072;7.036;2023-03-14T11:37:27;0.40;;;0.40;;
15425;SDS011;7812;50.072;7.036;2023-03-14T11:40:00;1.33;;;1.23;;
15425;SDS011;7812;50.072;7.036;2023-03-14T11:42:28;0.50;;;0.50;;
15425;SDS011;7812;50.072;7.036;2023-03-14T11:44:56;1.33;;;1.23;;
15425;SDS011;7812;50.072;7.036;2023-03-14T11:47:40;8.23;;;6.10;;
15425;SDS011;7812;50.072;7.036;2023-03-14T11:52:52;2.73;;;1.80;;
15425;SDS011;7812;50.072;7.036;2023-03-14T11:55:33;6.03;;;4.03;;
15425;SDS011;7812;50.072;7.036;2023-03-14T11:58:12;16.93;;;9.57;;
15425;SDS011;7812;50.072;7.036;2023-03-14T12:00:42;5.43;;;4.53;;
15425;SDS011;7812;50.072;7.036;2023-03-14T12:09:15;2.20;;;2.00;;
15425;SDS011;7812;50.072;7.036;2023-03-14T12:11:54;1.20;;;1.10;;
15425;SDS011;7812;50.072;7.036;2023-03-14T12:16:55;0.97;;;0.90;;
15425;SDS011;7812;50.072;7.036;2023-03-14T12:19:40;2.37;;;1.63;;
15425;SDS011;7812;50.072;7.036;2023-03-14T12:24:38;2.00;;;1.80;;
15425;SDS011;7812;50.072;7.036;2023-03-14T12:27:42;1.47;;;1.30;;
15425;SDS011;7812;50.072;7.036;2023-03-14T12:30:24;1.40;;;1.30;;
15425;SDS011;7812;50.072;7.036;2023-03-14T12:38:13;1.97;;;1.10;;
15425;SDS011;7812;50.072;7.036;2023-03-14T12:41:01;2.73;;;1.53;;
15425;SDS011;7812;50.072;7.036;2023-03-14T12:43:38;1.93;;;1.73;;
15425;SDS011;7812;50.072;7.036;2023-03-14T12:48:32;2.03;;;1.83;;
15425;SDS011;7812;50.072;7.036;2023-03-14T12:51:05;1.43;;;1.33;;
15425;SDS011;7812;50.072;7.036;2023-03-14T13:07:29;1.80;;;1.30;;
15425;SDS011;7812;50.072;7.036;2023-03-14T13:10:00;1.47;;;1.20;;
15425;SDS011;7812;50.072;7.036;2023-03-14T13:12:34;1.83;;;1.57;;
15425;SDS011;7812;50.072;7.036;2023-03-14T13:21:09;10.33;;;6.47;;
15425;SDS011;7812;50.072;7.036;2023-03-14T13:24:05;5.43;;;4.53;;
15425;SDS011;7812;50.072;7.036;2023-03-14T13:27:03;2.87;;;2.20;;
15425;SDS011;7812;50.072;7.036;2023-03-14T13:31:59;2.80;;;2.10;;
15425;SDS011;7812;50.072;7.036;2023-03-14T13:34:31;2.23;;;1.70;;
15425;SDS011;7812;50.072;7.036;2023-03-14T13:36:58;3.63;;;1.77;;
15425;SDS011;7812;50.072;7.036;2023-03-14T13:39:24;1.47;;;1.37;;
15425;SDS011;7812;50.072;7.036;2023-03-14T13:41:53;2.77;;;1.90;;
15425;SDS011;7812;50.072;7.036;2023-03-14T13:44:36;3.53;;;2.17;;
15425;SDS011;7812;50.072;7.036;2023-03-14T13:47:04;7.50;;;1.30;;
15425;SDS011;7812;50.072;7.036;2023-03-14T13:49:35;2.93;;;1.60;;
15425;SDS011;7812;50.072;7.036;2023-03-14T13:52:03;3.00;;;1.60;;
15425;SDS011;7812;50.072;7.036;2023-03-14T13:54:30;4.50;;;1.77;;
15425;SDS011;7812;50.072;7.036;2023-03-14T13:57:00;1.50;;;1.20;;
15425;SDS011;7812;50.072;7.036;2023-03-14T13:59:30;1.30;;;0.90;;
15425;SDS011;7812;50.072;7.036;2023-03-14T14:01:58;5.43;;;1.30;;
15425;SDS011;7812;50.072;7.036;2023-03-14T14:04:49;1.50;;;0.90;;
15425;SDS011;7812;50.072;7.036;2023-03-14T14:07:15;1.73;;;1.00;;
15425;SDS011;7812;50.072;7.036;2023-03-14T14:09:46;1.53;;;1.07;;
15425;SDS011;7812;50.072;7.036;2023-03-14T14:12:15;1.30;;;1.07;;
15425;SDS011;7812;50.072;7.036;2023-03-14T14:15:36;2.70;;;1.20;;
15425;SDS011;7812;50.072;7.036;2023-03-14T14:18:06;1.07;;;1.00;;
15425;SDS011;7812;50.072;7.036;2023-03-14T14:20:36;1.90;;;1.47;;
15425;SDS011;7812;50.072;7.036;2023-03-14T14:23:05;2.23;;;1.30;;
15425;SDS011;7812;50.072;7.036;2023-03-14T14:25:35;2.77;;;0.90;;
15425;SDS011;7812;50.072;7.036;2023-03-14T14:28:15;1.50;;;1.07;;
15425;SDS011;7812;50.072;7.036;2023-03-14T14:31:16;2.40;;;2.20;;
15425;SDS011;7812;50.072;7.036;2023-03-14T14:33:55;2.27;;;1.30;;
15425;SDS011;7812;50.072;7.036;2023-03-14T14:36:22;1.93;;;1.60;;
15425;SDS011;7812;50.072;7.036;2023-03-14T14:41:31;1.77;;;1.37;;
15425;SDS011;7812;50.072;7.036;2023-03-14T14:44:04;1.83;;;1.60;;
15425;SDS011;7812;50.072;7.036;2023-03-14T14:46:30;1.33;;;0.93;;
15425;SDS011;7812;50.072;7.036;2023-03-14T14:49:05;2.57;;;1.00;;
15425;SDS011;7812;50.072;7.036;2023-03-14T14:51:40;3.63;;;1.50;;
15425;SDS011;7812;50.072;7.036;2023-03-14T14:54:17;4.40;;;2.47;;
15425;SDS011;7812;50.072;7.036;2023-03-14T14:56:49;3.33;;;2.50;;
15425;SDS011;7812;50.072;7.036;2023-03-14T14:59:27;1.60;;;1.50;;
15425;SDS011;7812;50.072;7.036;2023-03-14T15:02:00;1.40;;;1.00;;
15425;SDS011;7812;50.072;7.036;2023-03-14T15:04:30;5.00;;;3.07;;
15425;SDS011;7812;50.072;7.036;2023-03-14T15:06:56;2.33;;;1.43;;
15425;SDS011;7812;50.072;7.036;2023-03-14T15:09:22;1.60;;;1.13;;
15425;SDS011;7812;50.072;7.036;2023-03-14T15:11:48;5.23;;;3.53;;
15425;SDS011;7812;50.072;7.036;2023-03-14T15:14:14;4.03;;;2.80;;
15425;SDS011;7812;50.072;7.036;2023-03-14T15:16:40;10.87;;;3.10;;
15425;SDS011;7812;50.072;7.036;2023-03-14T15:19:19;2.60;;;1.83;;
15425;SDS011;7812;50.072;7.036;2023-03-14T15:21:57;5.90;;;3.10;;
15425;SDS011;7812;50.072;7.036;2023-03-14T15:24:23;3.73;;;1.30;;
15425;SDS011;7812;50.072;7.036;2023-03-14T15:26:49;5.57;;;4.00;;
15425;SDS011;7812;50.072;7.036;2023-03-14T15:29:15;3.17;;;1.57;;
15425;SDS011;7812;50.072;7.036;2023-03-14T15:31:41;7.20;;;4.27;;
15425;SDS011;7812;50.072;7.036;2023-03-14T15:34:08;1.93;;;1.60;;
15425;SDS011;7812;50.072;7.036;2023-03-14T15:36:34;2.07;;;1.87;;
15425;SDS011;7812;50.072;7.036;2023-03-14T15:39:01;6.00;;;3.10;;
15425;SDS011;7812;50.072;7.036;2023-03-14T15:41:27;3.07;;;2.30;;
15425;SDS011;7812;50.072;7.036;2023-03-14T15:43:53;3.93;;;2.40;;
15425;SDS011;7812;50.072;7.036;2023-03-14T15:46:20;2.93;;;1.60;;
15425;SDS011;7812;50.072;7.036;2023-03-14T15:48:47;3.00;;;1.10;;
15425;SDS011;7812;50.072;7.036;2023-03-14T15:51:14;2.20;;;1.30;;
15425;SDS011;7812;50.072;7.036;2023-03-14T15:53:40;1.30;;;0.93;;
15425;SDS011;7812;50.072;7.036;2023-03-14T15:56:11;2.70;;;1.13;;
15425;SDS011;7812;50.072;7.036;2023-03-14T15:58:41;2.53;;;1.30;;
15425;SDS011;7812;50.072;7.036;2023-03-14T16:01:07;2.63;;;1.20;;
15425;SDS011;7812;50.072;7.036;2023-03-14T16:03:35;1.70;;;1.20;;
15425;SDS011;7812;50.072;7.036;2023-03-14T16:06:00;1.83;;;1.20;;
15425;SDS011;7812;50.072;7.036;2023-03-14T16:08:26;1.50;;;1.30;;
15425;SDS011;7812;50.072;7.036;2023-03-14T16:10:53;2.60;;;1.27;;
15425;SDS011;7812;50.072;7.036;2023-03-14T16:13:20;2.97;;;1.30;;
15425;SDS011;7812;50.072;7.036;2023-03-14T16:15:53;1.90;;;1.33;;
15425;SDS011;7812;50.072;7.036;2023-03-14T16:18:19;3.13;;;1.27;;
15425;SDS011;7812;50.072;7.036;2023-03-14T16:20:51;1.57;;;1.20;;
15425;SDS011;7812;50.072;7.036;2023-03-14T16:23:18;3.83;;;1.80;;
15425;SDS011;7812;50.072;7.036;2023-03-14T16:25:44;2.07;;;1.60;;
15425;SDS011;7812;50.072;7.036;2023-03-14T16:28:10;2.03;;;1.83;;
15425;SDS011;7812;50.072;7.036;2023-03-14T16:30:36;1.70;;;1.43;;
15425;SDS011;7812;50.072;7.036;2023-03-14T16:33:01;1.93;;;1.57;;
15425;SDS011;7812;50.072;7.036;2023-03-14T16:35:27;3.30;;;1.50;;
15425;SDS011;7812;50.072;7.036;2023-03-14T16:37:53;2.30;;;1.40;;
15425;SDS011;7812;50.072;7.036;2023-03-14T16:40:18;3.63;;;1.90;;
15425;SDS011;7812;50.072;7.036;2023-03-14T16:42:44;1.97;;;1.27;;